createdAt,value
2022-11-22T00:00:34.743Z,5.75
2022-11-22T00:03:01.593Z,7.00
2022-11-22T00:05:28.465Z,7.00
2022-11-22T00:07:55.406Z,7.00
2022-11-22T00:10:22.586Z,6.50
2022-11-22T00:12:49.885Z,6.25
2022-11-22T00:15:16.981Z,7.00
2022-11-22T00:17:45.128Z,7.00
2022-11-22T00:20:11.927Z,6.25
2022-11-22T00:22:44.189Z,2.75
2022-11-22T00:25:13.032Z,7.00
2022-11-22T00:27:40.242Z,6.00
2022-11-22T00:30:09.138Z,6.00
2022-11-22T00:32:36.737Z,8.25
2022-11-22T00:35:06.178Z,11.00
2022-11-22T00:37:33.115Z,15.75
2022-11-22T00:39:59.945Z,14.50
2022-11-22T00:42:26.952Z,13.00
2022-11-22T00:44:53.843Z,10.75
2022-11-22T00:47:20.780Z,11.25
2022-11-22T00:49:47.688Z,9.00
2022-11-22T00:52:16.066Z,9.50
2022-11-22T00:54:43.090Z,8.00
2022-11-22T00:57:09.842Z,7.25
2022-11-22T00:59:36.836Z,6.75
2022-11-22T01:02:03.621Z,6.50
2022-11-22T01:04:30.528Z,8.50
2022-11-22T01:06:57.291Z,9.50
2022-11-22T01:09:25.775Z,11.50
2022-11-22T01:11:52.871Z,11.75
2022-11-22T01:14:20.216Z,8.00
2022-11-22T01:16:48.061Z,13.00
2022-11-22T01:19:15.644Z,14.50
2022-11-22T01:21:42.454Z,20.50
2022-11-22T01:24:09.934Z,11.00
2022-11-22T01:26:38.254Z,8.50
2022-11-22T01:29:05.493Z,9.50
2022-11-22T01:31:32.845Z,8.00
2022-11-22T01:33:59.827Z,12.50
2022-11-22T01:36:27.223Z,6.00
2022-11-22T01:38:54.508Z,6.00
2022-11-22T01:41:22.347Z,3.00
2022-11-22T01:43:50.889Z,6.00
2022-11-22T01:46:32.680Z,5.75
2022-11-22T01:49:11.205Z,6.75
2022-11-22T01:51:42.966Z,6.25
2022-11-22T01:54:15.802Z,4.00
2022-11-22T01:56:47.989Z,4.00
2022-11-22T01:59:21.178Z,5.50
2022-11-22T02:01:48.900Z,5.75
2022-11-22T02:04:19.333Z,6.00
2022-11-22T02:06:56.919Z,6.00
2022-11-22T02:09:23.933Z,4.00
2022-11-22T02:11:55.941Z,1.00
2022-11-22T02:14:27.327Z,5.00
2022-11-22T02:16:54.691Z,7.00
2022-11-22T02:19:38.457Z,5.50
2022-11-22T02:22:24.965Z,9.50
2022-11-22T02:24:57.523Z,9.00
2022-11-22T02:27:25.813Z,6.50
2022-11-22T02:29:52.663Z,6.25
2022-11-22T02:32:19.878Z,6.25
2022-11-22T02:34:50.141Z,6.00
2022-11-22T02:37:24.862Z,5.25
2022-11-22T02:39:58.986Z,6.25
2022-11-22T02:42:31.178Z,8.00
2022-11-22T02:44:58.777Z,12.75
2022-11-22T02:47:26.070Z,16.25
2022-11-22T02:49:53.573Z,10.75
2022-11-22T02:52:20.658Z,12.75
2022-11-22T02:54:47.497Z,11.75
2022-11-22T02:57:14.497Z,8.25
2022-11-22T02:59:42.687Z,19.75
2022-11-22T03:02:09.586Z,15.50
2022-11-22T03:04:36.666Z,5.00
2022-11-22T03:07:03.634Z,3.00
2022-11-22T03:09:31.458Z,5.00
2022-11-22T03:11:58.732Z,6.25
2022-11-22T03:14:25.980Z,7.50
2022-11-22T03:16:54.403Z,5.00
2022-11-22T03:19:21.412Z,7.50
2022-11-22T03:21:48.764Z,6.50
2022-11-22T03:24:16.479Z,5.00
2022-11-22T03:26:47.443Z,7.00
2022-11-22T03:29:14.733Z,5.00
2022-11-22T03:31:41.608Z,5.00
2022-11-22T03:34:11.637Z,7.00
2022-11-22T03:36:38.725Z,5.00
2022-11-22T03:39:05.614Z,5.00
2022-11-22T03:41:32.389Z,2.00
2022-11-22T03:43:59.471Z,2.00
2022-11-22T03:46:26.885Z,0.25
2022-11-22T03:48:53.858Z,4.75
2022-11-22T03:51:22.755Z,4.25
2022-11-22T03:53:49.542Z,6.25
2022-11-22T03:56:16.400Z,5.00
2022-11-22T03:58:43.485Z,5.50
2022-11-22T04:01:16.309Z,4.25
2022-11-22T04:03:44.297Z,5.00
2022-11-22T04:06:11.355Z,4.00
2022-11-22T04:08:40.024Z,3.00
2022-11-22T04:11:06.875Z,0.00
2022-11-22T04:13:33.918Z,5.00
2022-11-22T04:16:00.789Z,2.00
2022-11-22T04:18:27.910Z,3.50
2022-11-22T04:20:54.718Z,1.75
2022-11-22T04:23:26.121Z,1.00
2022-11-22T04:25:56.773Z,1.00
2022-11-22T04:29:08.118Z,3.00
2022-11-22T04:31:13.081Z,4.00
2022-11-22T04:33:39.947Z,8.00
2022-11-22T04:36:13.021Z,9.00
2022-11-22T04:38:40.197Z,12.25
2022-11-22T04:41:08.378Z,19.00
2022-11-22T04:43:35.269Z,11.25
2022-11-22T04:46:02.440Z,8.25
2022-11-22T04:48:29.707Z,8.25
2022-11-22T04:50:57.881Z,4.50
2022-11-22T04:53:25.464Z,3.75
2022-11-22T04:55:52.491Z,4.25
2022-11-22T04:58:21.402Z,5.75
2022-11-22T05:00:48.825Z,5.75
2022-11-22T05:03:16.442Z,7.75
2022-11-22T05:05:45.154Z,9.50
2022-11-22T05:08:13.497Z,9.00
2022-11-22T05:10:41.064Z,14.50
2022-11-22T05:13:07.952Z,10.50
2022-11-22T05:15:36.328Z,12.00
2022-11-22T05:18:03.094Z,12.50
2022-11-22T05:20:29.952Z,5.00
2022-11-22T05:22:56.776Z,6.75
2022-11-22T05:25:25.713Z,15.75
2022-11-22T05:27:53.945Z,18.00
2022-11-22T05:30:22.123Z,15.00
2022-11-22T05:32:50.355Z,16.75
2022-11-22T05:35:17.478Z,22.00
2022-11-22T05:37:44.550Z,21.50
2022-11-22T05:40:15.632Z,20.50
2022-11-22T05:42:42.706Z,18.75
2022-11-22T05:45:10.203Z,13.75
2022-11-22T05:47:37.307Z,12.50
2022-11-22T05:50:06.965Z,11.00
2022-11-22T05:52:34.741Z,10.25
2022-11-22T05:55:02.001Z,10.50
2022-11-22T05:57:28.876Z,10.50
2022-11-22T05:59:55.706Z,13.75
2022-11-22T06:02:22.832Z,14.75
2022-11-22T06:04:49.837Z,13.75
2022-11-22T06:07:18.339Z,11.00
2022-11-22T06:09:45.372Z,7.50
2022-11-22T06:12:12.187Z,7.50
2022-11-22T06:14:43.166Z,7.50
2022-11-22T06:17:10.585Z,6.00
2022-11-22T06:19:37.713Z,8.25
2022-11-22T06:22:04.669Z,5.75
2022-11-22T06:24:33.204Z,13.25
2022-11-22T06:27:00.897Z,7.00
2022-11-22T06:29:29.600Z,4.00
2022-11-22T06:32:01.924Z,3.00
2022-11-22T06:34:30.392Z,1.25
2022-11-22T06:36:57.264Z,3.75
2022-11-22T06:39:24.070Z,3.50
2022-11-22T06:41:52.235Z,3.00
2022-11-22T06:44:19.270Z,4.25
2022-11-22T06:46:46.217Z,15.75
2022-11-22T06:49:13.051Z,7.00
2022-11-22T06:51:40.823Z,9.75
2022-11-22T06:54:11.657Z,13.50
2022-11-22T06:56:40.908Z,11.50
2022-11-22T06:59:10.267Z,13.75
2022-11-22T07:01:37.740Z,13.25
2022-11-22T07:04:05.643Z,11.25
2022-11-22T07:06:35.328Z,7.50
2022-11-22T07:09:05.954Z,8.00
2022-11-22T07:11:33.648Z,6.25
2022-11-22T07:14:07.646Z,9.75
2022-11-22T07:16:38.907Z,12.50
2022-11-22T07:19:07.502Z,14.00
2022-11-22T07:21:35.776Z,3.50
2022-11-22T07:24:06.025Z,1.50
2022-11-22T07:26:32.935Z,0.00
2022-11-22T07:28:59.933Z,3.25
2022-11-22T07:31:26.881Z,2.50
2022-11-22T07:33:56.163Z,4.25
2022-11-22T07:36:23.255Z,4.25
2022-11-22T07:38:51.243Z,3.50
2022-11-22T07:41:19.217Z,4.50
2022-11-22T07:43:46.738Z,7.75
2022-11-22T07:46:22.537Z,18.25
2022-11-22T07:48:50.564Z,15.25
2022-11-22T07:51:19.008Z,12.75
2022-11-22T07:53:46.984Z,12.50
2022-11-22T07:56:14.365Z,4.00
2022-11-22T07:58:41.317Z,4.00
2022-11-22T08:01:10.954Z,1.50
2022-11-22T08:03:38.753Z,0.00
2022-11-22T08:06:09.737Z,1.50
2022-11-22T08:08:38.656Z,2.00
2022-11-22T08:11:07.060Z,2.00
2022-11-22T08:13:35.426Z,4.00
2022-11-22T08:16:06.428Z,1.50
2022-11-22T08:18:34.014Z,1.75
2022-11-22T08:21:06.625Z,0.75
2022-11-22T08:23:33.950Z,1.75
2022-11-22T08:26:02.504Z,2.00
2022-11-22T08:28:29.526Z,1.75
2022-11-22T08:31:02.580Z,2.25
2022-11-22T08:33:29.689Z,3.25
2022-11-22T08:35:56.772Z,6.00
2022-11-22T08:38:24.312Z,3.25
2022-11-22T08:40:51.539Z,3.75
2022-11-22T08:43:20.122Z,6.00
2022-11-22T08:45:53.126Z,3.25
2022-11-22T08:48:22.468Z,5.50
2022-11-22T08:50:51.637Z,6.00
2022-11-22T08:53:18.628Z,4.00
2022-11-22T08:55:45.937Z,3.50
2022-11-22T08:58:13.217Z,3.00
2022-11-22T09:00:42.020Z,4.75
2022-11-22T09:03:09.215Z,4.25
2022-11-22T09:08:24.101Z,4.25
2022-11-22T09:10:51.297Z,6.00
2022-11-22T09:13:18.249Z,2.50
2022-11-22T09:15:46.619Z,2.00
2022-11-22T09:18:13.476Z,3.50
2022-11-22T09:20:40.283Z,1.00
2022-11-22T09:23:07.677Z,3.00
2022-11-22T09:25:34.545Z,3.25
2022-11-22T09:28:01.583Z,3.25
2022-11-22T09:30:28.803Z,7.25
2022-11-22T09:32:57.165Z,4.00
2022-11-22T09:35:23.961Z,4.00
2022-11-22T09:37:51.150Z,4.00
2022-11-22T09:40:18.030Z,1.75
2022-11-22T09:43:13.988Z,3.25
2022-11-22T09:46:14.509Z,3.00
2022-11-22T09:49:13.190Z,5.25
2022-11-22T09:51:49.205Z,4.00
2022-11-22T09:54:26.106Z,3.50
2022-11-22T09:56:59.133Z,4.00
2022-11-22T09:59:34.986Z,2.00
2022-11-22T10:02:18.069Z,4.00
2022-11-22T10:04:56.916Z,2.00
2022-11-22T10:07:34.420Z,4.25
2022-11-22T10:10:08.842Z,5.00
2022-11-22T10:12:47.419Z,7.00
2022-11-22T10:15:28.708Z,8.25
2022-11-22T10:18:01.869Z,7.00
2022-11-22T10:20:35.605Z,7.00
2022-11-22T10:23:07.240Z,4.50
2022-11-22T10:25:40.348Z,4.00
2022-11-22T10:28:17.091Z,3.00
2022-11-22T10:30:58.618Z,4.00
2022-11-22T10:33:39.956Z,3.75
2022-11-22T10:36:34.838Z,3.25
2022-11-22T10:39:19.242Z,3.00
2022-11-22T10:42:12.013Z,3.00
2022-11-22T10:44:51.148Z,3.00
2022-11-22T10:47:40.263Z,4.50
2022-11-22T10:50:20.202Z,4.50
2022-11-22T10:53:02.725Z,4.25
2022-11-22T10:55:49.351Z,6.25
2022-11-22T10:58:32.850Z,4.00
2022-11-22T11:01:17.490Z,4.75
2022-11-22T11:03:49.840Z,5.25
2022-11-22T11:06:43.601Z,3.00
2022-11-22T11:10:10.373Z,7.50
2022-11-22T11:12:38.719Z,3.00
2022-11-22T11:15:23.214Z,5.50
2022-11-22T11:18:02.640Z,3.75
2022-11-22T11:20:39.670Z,5.00
2022-11-22T11:23:16.292Z,5.00
2022-11-22T11:25:51.963Z,3.75
2022-11-22T11:28:27.130Z,4.75
2022-11-22T11:31:06.611Z,5.50
2022-11-22T11:33:42.252Z,6.50
2022-11-22T11:36:18.976Z,6.25
2022-11-22T11:38:57.428Z,4.25
2022-11-22T11:41:36.308Z,5.50
2022-11-22T11:44:39.095Z,3.00
2022-11-22T11:47:06.099Z,2.25
2022-11-22T11:49:35.135Z,2.25
2022-11-22T11:52:05.944Z,2.00
2022-11-22T11:54:42.929Z,1.00
2022-11-22T11:57:15.140Z,2.00
2022-11-22T11:59:47.119Z,0.75
2022-11-22T12:02:23.930Z,1.00
2022-11-22T12:04:59.653Z,1.00
2022-11-22T12:08:01.078Z,1.00
2022-11-22T12:10:43.936Z,1.50
2022-11-22T12:13:23.012Z,1.00
2022-11-22T12:15:58.803Z,0.00
2022-11-22T12:18:39.259Z,1.00
2022-11-22T12:21:22.463Z,0.75
2022-11-22T12:24:26.584Z,0.75
2022-11-22T12:26:53.771Z,0.00
2022-11-22T12:29:26.585Z,1.00
2022-11-22T12:32:02.344Z,1.00
2022-11-22T12:34:36.655Z,1.00
2022-11-22T12:37:12.833Z,1.00
2022-11-22T12:39:50.983Z,1.00
2022-11-22T12:42:28.876Z,1.25
2022-11-22T12:45:13.546Z,1.00
2022-11-22T12:47:50.808Z,1.00
2022-11-22T12:50:30.450Z,1.50
2022-11-22T12:53:12.522Z,1.25
2022-11-22T12:55:48.218Z,1.00
2022-11-22T12:58:24.217Z,1.50
2022-11-22T13:01:18.178Z,1.00
2022-11-22T13:03:56.279Z,1.00
2022-11-22T13:06:32.140Z,1.00
2022-11-22T13:09:07.979Z,2.00
2022-11-22T13:11:47.439Z,0.75
2022-11-22T13:14:21.547Z,0.00
2022-11-22T13:16:51.573Z,0.00
2022-11-22T13:19:26.074Z,0.00
2022-11-22T13:22:15.707Z,0.50
2022-11-22T13:25:08.105Z,0.00
2022-11-22T13:27:42.684Z,0.25
2022-11-22T13:30:21.242Z,0.00
2022-11-22T13:32:54.639Z,0.00
2022-11-22T13:35:31.894Z,0.00
2022-11-22T13:38:04.261Z,1.00
2022-11-22T13:40:34.692Z,0.00
2022-11-22T13:43:51.939Z,0.25
2022-11-22T13:46:58.156Z,0.00
2022-11-22T13:49:43.662Z,0.50
2022-11-22T13:52:45.846Z,0.00
2022-11-22T13:55:37.466Z,1.00
2022-11-22T13:58:53.017Z,0.50
2022-11-22T14:01:57.015Z,0.25
2022-11-22T14:04:44.927Z,0.00
2022-11-22T14:07:33.390Z,0.75
2022-11-22T14:10:03.579Z,0.25
2022-11-22T14:12:54.718Z,0.00
2022-11-22T14:16:01.520Z,1.00
2022-11-22T14:18:51.170Z,0.25
2022-11-22T14:21:46.447Z,0.00
2022-11-22T14:24:32.654Z,0.00
2022-11-22T14:27:15.847Z,0.00
2022-11-22T14:30:03.919Z,0.00
2022-11-22T14:32:48.661Z,0.00
2022-11-22T14:35:29.292Z,0.00
2022-11-22T14:38:32.189Z,1.00
2022-11-22T14:41:42.558Z,1.00
2022-11-22T14:44:17.891Z,1.00
2022-11-22T14:46:55.325Z,0.00
2022-11-22T14:49:36.958Z,1.00
2022-11-22T14:52:19.571Z,0.00
2022-11-22T14:54:55.893Z,1.75
2022-11-22T14:57:28.173Z,1.00
2022-11-22T15:00:18.955Z,0.00
2022-11-22T15:03:39.377Z,0.75
2022-11-22T15:09:10.061Z,0.50
2022-11-22T15:09:56.906Z,0.75
2022-11-22T15:13:06.837Z,0.75
2022-11-22T15:59:22.210Z,3.00
2022-11-22T16:01:56.047Z,2.00
2022-11-22T16:04:28.611Z,6.50
2022-11-22T16:06:58.692Z,2.75
2022-11-22T16:09:32.083Z,3.75
2022-11-22T16:12:00.774Z,6.25
2022-11-22T16:14:46.116Z,6.25
2022-11-22T16:17:28.554Z,12.75
2022-11-22T16:20:42.412Z,4.25
2022-11-22T16:23:24.124Z,3.25
2022-11-22T16:25:57.440Z,2.25
2022-11-22T16:28:32.625Z,3.75
2022-11-22T16:31:04.121Z,3.50
2022-11-22T16:33:33.306Z,7.00
2022-11-22T16:36:02.049Z,8.00
2022-11-22T16:38:29.207Z,3.25
2022-11-22T16:40:58.535Z,3.00
2022-11-22T16:43:32.724Z,2.00
2022-11-22T16:45:59.819Z,1.00
2022-11-22T16:48:32.564Z,3.00
2022-11-22T16:51:04.689Z,4.75
2022-11-22T16:53:41.254Z,5.25
2022-11-22T16:56:16.724Z,6.00
2022-11-22T16:58:44.083Z,3.00
2022-11-22T17:01:14.110Z,3.75
2022-11-22T17:03:42.224Z,7.50
2022-11-22T17:06:14.446Z,6.50
2022-11-22T17:08:41.708Z,7.75
2022-11-22T17:11:11.103Z,8.50
2022-11-22T17:13:37.944Z,6.75
2022-11-22T17:16:06.331Z,5.75
2022-11-22T17:18:33.678Z,3.75
2022-11-22T17:21:00.601Z,3.75
2022-11-22T17:23:34.124Z,10.00
2022-11-22T17:26:01.566Z,8.75
2022-11-22T17:28:28.573Z,7.50
2022-11-22T17:30:58.441Z,5.00
2022-11-22T17:33:25.532Z,7.75
2022-11-22T17:35:53.307Z,7.75
2022-11-22T17:38:20.210Z,8.50
2022-11-22T17:40:48.380Z,2.75
2022-11-22T17:43:15.912Z,7.00
2022-11-22T17:45:43.550Z,3.75
2022-11-22T17:48:12.101Z,2.00
2022-11-22T17:50:39.682Z,2.75
2022-11-22T17:53:06.613Z,1.50
2022-11-22T17:55:48.316Z,3.75
2022-11-22T17:58:22.131Z,1.50
2022-11-22T18:00:48.967Z,2.00
2022-11-22T18:03:15.909Z,2.75
2022-11-22T18:05:42.715Z,1.00
2022-11-22T18:08:12.953Z,1.75
2022-11-22T18:10:40.105Z,2.50
2022-11-22T18:13:20.801Z,2.75
2022-11-22T18:15:53.961Z,0.75
2022-11-22T18:18:54.633Z,2.50
2022-11-22T18:21:15.661Z,5.50
2022-11-22T18:23:44.340Z,5.00
2022-11-22T18:29:35.193Z,9.00
2022-11-22T18:31:52.324Z,2.00
2022-11-22T18:34:20.123Z,4.25
2022-11-22T18:37:04.732Z,6.25
2022-11-22T18:39:36.075Z,3.50
2022-11-22T18:42:04.361Z,3.25
2022-11-22T18:44:31.167Z,6.50
2022-11-22T18:46:59.539Z,2.25
2022-11-22T18:49:26.689Z,3.00
2022-11-22T18:51:54.012Z,2.00
2022-11-22T18:54:20.972Z,2.00
2022-11-22T18:56:48.140Z,2.00
2022-11-22T18:59:15.458Z,4.50
2022-11-22T19:01:42.641Z,3.00
2022-11-22T19:04:12.717Z,6.50
2022-11-22T19:06:39.673Z,7.00
2022-11-22T19:09:06.679Z,4.25
2022-11-22T19:11:33.627Z,7.25
2022-11-22T19:14:00.528Z,4.75
2022-11-22T19:16:27.483Z,6.00
2022-11-22T19:18:54.734Z,5.75
2022-11-22T19:21:25.470Z,2.50
2022-11-22T19:23:52.715Z,4.00
2022-11-22T19:26:21.954Z,5.25
2022-11-22T19:28:51.301Z,6.25
2022-11-22T19:31:20.769Z,9.00
2022-11-22T19:33:49.021Z,8.00
2022-11-22T19:36:19.190Z,8.25
2022-11-22T19:38:48.931Z,11.25
2022-11-22T19:41:18.663Z,15.00
2022-11-22T19:43:46.721Z,10.00
2022-11-22T19:46:14.460Z,8.00
2022-11-22T19:48:46.938Z,8.50
2022-11-22T19:51:15.766Z,8.25
2022-11-22T19:53:42.695Z,11.75
2022-11-22T19:56:15.320Z,9.25
2022-11-22T19:58:43.221Z,6.00
2022-11-22T20:01:12.819Z,4.00
2022-11-22T20:03:42.749Z,5.25
2022-11-22T20:06:12.552Z,2.75
2022-11-22T20:08:40.747Z,5.00
2022-11-22T20:11:10.566Z,2.25
2022-11-22T20:13:41.356Z,3.00
2022-11-22T20:16:12.070Z,2.25
2022-11-22T20:18:39.238Z,4.50
2022-11-22T20:21:08.426Z,4.75
2022-11-22T20:23:38.978Z,5.75
2022-11-22T20:26:11.628Z,6.25
2022-11-22T20:28:43.001Z,8.25
2022-11-22T20:31:13.369Z,9.00
2022-11-22T20:33:43.036Z,8.00
2022-11-22T20:36:13.222Z,9.25
2022-11-22T20:38:43.012Z,8.00
2022-11-22T20:41:13.739Z,6.50
2022-11-22T20:43:43.048Z,7.25
2022-11-22T20:46:12.943Z,5.75
2022-11-22T20:48:42.445Z,7.00
2022-11-22T20:51:12.507Z,6.25
2022-11-22T20:53:39.414Z,5.00
2022-11-22T20:56:07.102Z,6.75
2022-11-22T20:58:34.031Z,4.00
2022-11-22T21:01:08.190Z,7.00
2022-11-22T21:03:35.903Z,6.75
2022-11-22T21:06:03.964Z,5.00
2022-11-22T21:08:32.374Z,6.50
2022-11-22T21:11:04.407Z,5.75
2022-11-22T21:13:31.936Z,9.75
2022-11-22T21:16:15.605Z,8.00
2022-11-22T21:18:50.707Z,9.00
2022-11-22T21:21:17.541Z,4.75
2022-11-22T21:23:44.411Z,4.75
2022-11-22T21:26:11.403Z,3.00
2022-11-22T21:28:38.991Z,4.00
2022-11-22T21:31:08.002Z,1.75
2022-11-22T21:33:37.161Z,5.75
2022-11-22T21:36:06.751Z,5.75
2022-11-22T21:38:34.449Z,8.75
2022-11-22T21:41:24.368Z,7.50
2022-11-22T21:43:54.632Z,8.75
2022-11-22T21:46:22.988Z,10.25
2022-11-22T21:48:49.746Z,8.75
2022-11-22T21:51:16.782Z,7.25
2022-11-22T21:53:43.556Z,7.75
2022-11-22T21:56:10.490Z,9.50
2022-11-22T21:58:37.286Z,1.25
2022-11-22T22:01:08.271Z,11.25
2022-11-22T22:03:39.777Z,9.75
2022-11-22T22:06:07.280Z,6.50
2022-11-22T22:08:34.285Z,8.25
2022-11-22T22:11:01.365Z,5.00
2022-11-22T22:13:28.208Z,6.50
2022-11-22T22:15:56.549Z,7.50
2022-11-22T22:18:23.645Z,4.50
2022-11-22T22:21:01.370Z,5.00
2022-11-22T22:23:28.959Z,4.50
2022-11-22T22:26:00.131Z,6.25
2022-11-22T22:28:28.288Z,7.25
2022-11-22T22:31:07.223Z,4.50
2022-11-22T22:33:35.209Z,4.75
2022-11-22T22:36:04.738Z,3.00
2022-11-22T22:38:32.616Z,5.75
2022-11-22T22:41:02.313Z,5.00
2022-11-22T22:43:32.052Z,5.50
2022-11-22T22:46:06.407Z,2.50
2022-11-22T22:48:34.743Z,6.50
2022-11-22T22:51:07.998Z,7.00
2022-11-22T22:53:35.745Z,8.25
2022-11-22T22:56:03.149Z,8.25
2022-11-22T22:58:30.354Z,8.00
2022-11-22T23:01:05.361Z,7.50
2022-11-22T23:03:32.370Z,5.25
2022-11-22T23:05:59.649Z,6.00
2022-11-22T23:08:27.822Z,3.50
2022-11-22T23:10:54.843Z,4.00
2022-11-22T23:13:21.646Z,6.50
2022-11-22T23:15:58.198Z,6.75
2022-11-22T23:18:25.677Z,8.00
2022-11-22T23:20:52.633Z,8.50
2022-11-22T23:23:19.662Z,9.00
2022-11-22T23:25:47.823Z,4.00
2022-11-22T23:28:14.895Z,3.00
2022-11-22T23:30:41.835Z,5.00
2022-11-22T23:33:08.679Z,4.25
2022-11-22T23:35:35.972Z,1.00
2022-11-22T23:38:03.520Z,7.75
2022-11-22T23:40:30.523Z,7.00
2022-11-22T23:42:58.895Z,8.50
2022-11-22T23:45:25.891Z,10.50
2022-11-22T23:47:53.301Z,7.50
2022-11-22T23:50:20.284Z,8.00
2022-11-22T23:52:47.362Z,11.00
2022-11-22T23:55:14.673Z,6.25
2022-11-22T23:57:41.453Z,8.75
